sensor_id;sensor_type;location;lat;lon;timestamp;temperature;humidity
27413;DHT22;14871;52.702;5.230;2022-11-15T00:00:05;9.70;99.90
27413;DHT22;14871;52.702;5.230;2022-11-15T00:02:31;9.60;99.90
27413;DHT22;14871;52.702;5.230;2022-11-15T00:04:56;9.80;99.90
27413;DHT22;14871;52.702;5.230;2022-11-15T00:07:22;9.80;99.90
27413;DHT22;14871;52.702;5.230;2022-11-15T00:09:47;9.70;99.90
27413;DHT22;14871;52.702;5.230;2022-11-15T00:12:13;9.70;99.90
27413;DHT22;14871;52.702;5.230;2022-11-15T00:14:38;10.00;99.90
27413;DHT22;14871;52.702;5.230;2022-11-15T00:17:04;10.00;99.90
27413;DHT22;14871;52.702;5.230;2022-11-15T00:19:29;9.90;99.90
27413;DHT22;14871;52.702;5.230;2022-11-15T00:21:55;10.00;99.90
27413;DHT22;14871;52.702;5.230;2022-11-15T00:24:20;9.90;99.90
27413;DHT22;14871;52.702;5.230;2022-11-15T00:26:46;10.00;99.90
27413;DHT22;14871;52.702;5.230;2022-11-15T00:29:11;9.80;99.90
27413;DHT22;14871;52.702;5.230;2022-11-15T00:31:36;9.70;99.90
27413;DHT22;14871;52.702;5.230;2022-11-15T00:34:02;9.70;99.90
27413;DHT22;14871;52.702;5.230;2022-11-15T00:36:27;9.80;99.90
27413;DHT22;14871;52.702;5.230;2022-11-15T00:38:53;9.80;99.90
27413;DHT22;14871;52.702;5.230;2022-11-15T00:41:18;9.80;99.90
27413;DHT22;14871;52.702;5.230;2022-11-15T00:43:44;10.00;99.90
27413;DHT22;14871;52.702;5.230;2022-11-15T00:46:09;9.90;99.90
27413;DHT22;14871;52.702;5.230;2022-11-15T00:48:35;9.90;99.90
27413;DHT22;14871;52.702;5.230;2022-11-15T00:51:01;10.00;99.90
27413;DHT22;14871;52.702;5.230;2022-11-15T00:53:26;9.90;99.90
27413;DHT22;14871;52.702;5.230;2022-11-15T00:55:52;9.90;99.90
27413;DHT22;14871;52.702;5.230;2022-11-15T00:58:18;10.00;99.90
27413;DHT22;14871;52.702;5.230;2022-11-15T01:00:43;9.90;99.90
27413;DHT22;14871;52.702;5.230;2022-11-15T01:03:09;9.80;99.90
27413;DHT22;14871;52.702;5.230;2022-11-15T01:05:36;9.50;99.90
27413;DHT22;14871;52.702;5.230;2022-11-15T01:08:02;9.60;99.90
27413;DHT22;14871;52.702;5.230;2022-11-15T01:10:27;9.80;99.90
27413;DHT22;14871;52.702;5.230;2022-11-15T01:12:53;9.70;99.90
27413;DHT22;14871;52.702;5.230;2022-11-15T01:15:18;9.40;99.90
27413;DHT22;14871;52.702;5.230;2022-11-15T01:17:44;9.60;99.90
27413;DHT22;14871;52.702;5.230;2022-11-15T01:20:09;9.60;99.90
27413;DHT22;14871;52.702;5.230;2022-11-15T01:22:35;9.50;99.90
27413;DHT22;14871;52.702;5.230;2022-11-15T01:25:00;9.50;99.90
27413;DHT22;14871;52.702;5.230;2022-11-15T01:27:26;9.40;99.90
27413;DHT22;14871;52.702;5.230;2022-11-15T01:29:51;9.40;99.90
27413;DHT22;14871;52.702;5.230;2022-11-15T01:32:17;9.50;99.90
27413;DHT22;14871;52.702;5.230;2022-11-15T01:34:42;9.50;99.90
27413;DHT22;14871;52.702;5.230;2022-11-15T01:37:08;9.60;99.90
27413;DHT22;14871;52.702;5.230;2022-11-15T01:39:34;9.40;99.90
27413;DHT22;14871;52.702;5.230;2022-11-15T01:41:59;9.50;99.90
27413;DHT22;14871;52.702;5.230;2022-11-15T01:47:03;9.40;99.90
27413;DHT22;14871;52.702;5.230;2022-11-15T01:49:31;9.60;99.90
27413;DHT22;14871;52.702;5.230;2022-11-15T01:51:57;9.40;99.90
27413;DHT22;14871;52.702;5.230;2022-11-15T01:54:24;9.60;99.90
27413;DHT22;14871;52.702;5.230;2022-11-15T01:57:01;9.60;99.90
27413;DHT22;14871;52.702;5.230;2022-11-15T01:59:27;9.80;99.90
27413;DHT22;14871;52.702;5.230;2022-11-15T02:01:53;9.70;99.90
27413;DHT22;14871;52.702;5.230;2022-11-15T02:04:24;9.60;99.90
27413;DHT22;14871;52.702;5.230;2022-11-15T02:06:49;9.70;99.90
27413;DHT22;14871;52.702;5.230;2022-11-15T02:09:15;9.80;99.90
27413;DHT22;14871;52.702;5.230;2022-11-15T02:11:41;9.80;99.90
27413;DHT22;14871;52.702;5.230;2022-11-15T02:14:07;9.80;99.90
27413;DHT22;14871;52.702;5.230;2022-11-15T02:16:43;9.90;99.90
27413;DHT22;14871;52.702;5.230;2022-11-15T02:22:10;9.90;99.90
27413;DHT22;14871;52.702;5.230;2022-11-15T02:27:27;9.90;99.90
27413;DHT22;14871;52.702;5.230;2022-11-15T02:30:12;9.90;99.90
27413;DHT22;14871;52.702;5.230;2022-11-15T02:32:40;9.80;99.90
27413;DHT22;14871;52.702;5.230;2022-11-15T02:35:17;9.60;99.90
27413;DHT22;14871;52.702;5.230;2022-11-15T02:37:59;9.60;99.90
27413;DHT22;14871;52.702;5.230;2022-11-15T02:40:37;9.90;99.90
27413;DHT22;14871;52.702;5.230;2022-11-15T02:43:07;10.10;99.90
27413;DHT22;14871;52.702;5.230;2022-11-15T02:45:53;9.90;99.90
27413;DHT22;14871;52.702;5.230;2022-11-15T02:48:22;9.90;99.90
27413;DHT22;14871;52.702;5.230;2022-11-15T02:50:48;9.80;99.90
27413;DHT22;14871;52.702;5.230;2022-11-15T02:53:14;10.00;99.90
27413;DHT22;14871;52.702;5.230;2022-11-15T02:55:46;10.00;99.90
27413;DHT22;14871;52.702;5.230;2022-11-15T03:03:52;9.70;99.90
27413;DHT22;14871;52.702;5.230;2022-11-15T03:09:07;10.00;99.90
27413;DHT22;14871;52.702;5.230;2022-11-15T03:11:35;9.90;99.90
27413;DHT22;14871;52.702;5.230;2022-11-15T03:16:38;10.00;99.90
27413;DHT22;14871;52.702;5.230;2022-11-15T03:19:12;10.10;99.90
27413;DHT22;14871;52.702;5.230;2022-11-15T03:21:39;10.10;99.90
27413;DHT22;14871;52.702;5.230;2022-11-15T03:24:05;10.30;99.90
27413;DHT22;14871;52.702;5.230;2022-11-15T03:26:31;10.40;99.90
27413;DHT22;14871;52.702;5.230;2022-11-15T03:29:03;10.40;99.90
27413;DHT22;14871;52.702;5.230;2022-11-15T03:31:31;10.40;99.90
27413;DHT22;14871;52.702;5.230;2022-11-15T03:34:29;10.40;99.90
27413;DHT22;14871;52.702;5.230;2022-11-15T03:36:57;10.40;99.90
27413;DHT22;14871;52.702;5.230;2022-11-15T03:39:23;10.30;99.90
27413;DHT22;14871;52.702;5.230;2022-11-15T03:44:22;10.10;99.90
27413;DHT22;14871;52.702;5.230;2022-11-15T03:46:53;10.40;99.90
27413;DHT22;14871;52.702;5.230;2022-11-15T03:49:33;10.40;99.90
27413;DHT22;14871;52.702;5.230;2022-11-15T03:52:00;10.30;99.90
27413;DHT22;14871;52.702;5.230;2022-11-15T03:54:25;10.30;99.90
27413;DHT22;14871;52.702;5.230;2022-11-15T03:56:51;10.50;99.90
27413;DHT22;14871;52.702;5.230;2022-11-15T03:59:16;10.40;99.90
27413;DHT22;14871;52.702;5.230;2022-11-15T04:01:42;10.30;99.90
27413;DHT22;14871;52.702;5.230;2022-11-15T04:04:07;10.40;99.90
27413;DHT22;14871;52.702;5.230;2022-11-15T04:06:33;10.40;99.90
27413;DHT22;14871;52.702;5.230;2022-11-15T04:08:59;10.70;99.90
27413;DHT22;14871;52.702;5.230;2022-11-15T04:11:24;10.50;99.90
27413;DHT22;14871;52.702;5.230;2022-11-15T04:13:49;10.40;99.90
27413;DHT22;14871;52.702;5.230;2022-11-15T04:16:15;10.40;99.90
27413;DHT22;14871;52.702;5.230;2022-11-15T04:18:40;10.60;99.90
27413;DHT22;14871;52.702;5.230;2022-11-15T04:21:07;10.80;99.90
27413;DHT22;14871;52.702;5.230;2022-11-15T04:23:51;10.70;99.90
27413;DHT22;14871;52.702;5.230;2022-11-15T04:26:21;11.00;99.90
27413;DHT22;14871;52.702;5.230;2022-11-15T04:28:47;11.00;99.90
27413;DHT22;14871;52.702;5.230;2022-11-15T04:31:31;11.00;99.90
27413;DHT22;14871;52.702;5.230;2022-11-15T04:33:57;11.20;99.90
27413;DHT22;14871;52.702;5.230;2022-11-15T04:36:22;11.00;99.90
27413;DHT22;14871;52.702;5.230;2022-11-15T04:39:06;10.90;99.90
27413;DHT22;14871;52.702;5.230;2022-11-15T04:41:32;11.00;99.90
27413;DHT22;14871;52.702;5.230;2022-11-15T04:43:57;11.10;99.90
27413;DHT22;14871;52.702;5.230;2022-11-15T04:46:23;11.10;99.90
27413;DHT22;14871;52.702;5.230;2022-11-15T04:48:49;11.00;99.90
27413;DHT22;14871;52.702;5.230;2022-11-15T04:51:15;11.20;99.90
27413;DHT22;14871;52.702;5.230;2022-11-15T04:53:40;11.30;99.90
27413;DHT22;14871;52.702;5.230;2022-11-15T04:56:06;11.20;99.90
27413;DHT22;14871;52.702;5.230;2022-11-15T04:58:32;11.40;99.90
27413;DHT22;14871;52.702;5.230;2022-11-15T05:00:57;11.30;99.90
27413;DHT22;14871;52.702;5.230;2022-11-15T05:03:23;11.30;99.90
27413;DHT22;14871;52.702;5.230;2022-11-15T05:06:07;11.40;99.90
27413;DHT22;14871;52.702;5.230;2022-11-15T05:08:33;11.30;99.90
27413;DHT22;14871;52.702;5.230;2022-11-15T05:10:58;11.20;99.90
27413;DHT22;14871;52.702;5.230;2022-11-15T05:13:24;11.30;99.90
27413;DHT22;14871;52.702;5.230;2022-11-15T05:15:49;11.20;99.90
27413;DHT22;14871;52.702;5.230;2022-11-15T05:18:15;11.20;99.90
27413;DHT22;14871;52.702;5.230;2022-11-15T05:20:40;11.10;99.90
27413;DHT22;14871;52.702;5.230;2022-11-15T05:23:06;11.20;99.90
27413;DHT22;14871;52.702;5.230;2022-11-15T05:25:32;11.30;99.90
27413;DHT22;14871;52.702;5.230;2022-11-15T05:27:57;11.20;99.90
27413;DHT22;14871;52.702;5.230;2022-11-15T05:30:23;11.30;99.90
27413;DHT22;14871;52.702;5.230;2022-11-15T05:32:48;11.30;99.90
27413;DHT22;14871;52.702;5.230;2022-11-15T05:35:30;11.50;99.90
27413;DHT22;14871;52.702;5.230;2022-11-15T05:37:58;11.50;99.90
27413;DHT22;14871;52.702;5.230;2022-11-15T05:40:23;11.60;99.90
27413;DHT22;14871;52.702;5.230;2022-11-15T05:42:49;11.60;99.90
27413;DHT22;14871;52.702;5.230;2022-11-15T05:45:14;11.60;99.90
27413;DHT22;14871;52.702;5.230;2022-11-15T05:47:40;11.50;99.90
27413;DHT22;14871;52.702;5.230;2022-11-15T05:50:06;11.70;99.90
27413;DHT22;14871;52.702;5.230;2022-11-15T05:52:33;11.80;99.90
27413;DHT22;14871;52.702;5.230;2022-11-15T05:55:01;11.80;99.90
27413;DHT22;14871;52.702;5.230;2022-11-15T05:57:27;11.80;99.90
27413;DHT22;14871;52.702;5.230;2022-11-15T05:59:52;11.80;99.90
27413;DHT22;14871;52.702;5.230;2022-11-15T06:02:19;11.80;99.90
27413;DHT22;14871;52.702;5.230;2022-11-15T06:04:44;11.80;99.90
27413;DHT22;14871;52.702;5.230;2022-11-15T06:07:09;11.90;99.90
27413;DHT22;14871;52.702;5.230;2022-11-15T06:09:35;11.90;99.90
27413;DHT22;14871;52.702;5.230;2022-11-15T06:12:00;11.70;99.90
27413;DHT22;14871;52.702;5.230;2022-11-15T06:14:26;11.80;99.90
27413;DHT22;14871;52.702;5.230;2022-11-15T06:16:51;11.70;99.90
27413;DHT22;14871;52.702;5.230;2022-11-15T06:19:17;11.70;99.90
27413;DHT22;14871;52.702;5.230;2022-11-15T06:21:42;11.90;99.90
27413;DHT22;14871;52.702;5.230;2022-11-15T06:24:08;11.90;99.90
27413;DHT22;14871;52.702;5.230;2022-11-15T06:26:33;12.00;99.90
27413;DHT22;14871;52.702;5.230;2022-11-15T06:28:59;11.90;99.90
27413;DHT22;14871;52.702;5.230;2022-11-15T06:31:24;12.00;99.90
27413;DHT22;14871;52.702;5.230;2022-11-15T06:33:50;12.00;99.90
27413;DHT22;14871;52.702;5.230;2022-11-15T06:36:15;11.90;99.90
27413;DHT22;14871;52.702;5.230;2022-11-15T06:38:42;12.20;99.90
27413;DHT22;14871;52.702;5.230;2022-11-15T06:41:08;12.10;99.90
27413;DHT22;14871;52.702;5.230;2022-11-15T06:43:34;12.10;99.90
27413;DHT22;14871;52.702;5.230;2022-11-15T06:46:00;12.00;99.90
27413;DHT22;14871;52.702;5.230;2022-11-15T06:48:26;12.20;99.90
27413;DHT22;14871;52.702;5.230;2022-11-15T06:50:52;12.10;99.90
27413;DHT22;14871;52.702;5.230;2022-11-15T06:53:18;11.90;99.90
27413;DHT22;14871;52.702;5.230;2022-11-15T06:55:44;12.10;99.90
27413;DHT22;14871;52.702;5.230;2022-11-15T06:58:09;12.00;99.90
27413;DHT22;14871;52.702;5.230;2022-11-15T07:00:35;12.30;99.90
27413;DHT22;14871;52.702;5.230;2022-11-15T07:03:00;12.10;99.90
27413;DHT22;14871;52.702;5.230;2022-11-15T07:05:26;12.10;99.90
27413;DHT22;14871;52.702;5.230;2022-11-15T07:07:52;12.00;99.90
27413;DHT22;14871;52.702;5.230;2022-11-15T07:10:18;12.10;99.90
27413;DHT22;14871;52.702;5.230;2022-11-15T07:12:46;12.10;99.90
27413;DHT22;14871;52.702;5.230;2022-11-15T07:15:12;12.20;99.90
27413;DHT22;14871;52.702;5.230;2022-11-15T07:17:37;12.10;99.90
27413;DHT22;14871;52.702;5.230;2022-11-15T07:20:03;12.00;99.90
27413;DHT22;14871;52.702;5.230;2022-11-15T07:22:29;12.20;99.90
27413;DHT22;14871;52.702;5.230;2022-11-15T07:24:54;12.20;99.90
27413;DHT22;14871;52.702;5.230;2022-11-15T07:27:19;12.20;99.90
27413;DHT22;14871;52.702;5.230;2022-11-15T07:29:45;12.30;99.90
27413;DHT22;14871;52.702;5.230;2022-11-15T07:32:10;12.20;99.90
27413;DHT22;14871;52.702;5.230;2022-11-15T07:34:36;12.40;99.90
27413;DHT22;14871;52.702;5.230;2022-11-15T07:37:01;12.30;99.90
27413;DHT22;14871;52.702;5.230;2022-11-15T07:39:27;12.30;99.90
27413;DHT22;14871;52.702;5.230;2022-11-15T07:41:52;12.50;99.90
27413;DHT22;14871;52.702;5.230;2022-11-15T07:44:38;12.30;99.90
27413;DHT22;14871;52.702;5.230;2022-11-15T07:47:03;12.30;99.90
27413;DHT22;14871;52.702;5.230;2022-11-15T07:49:29;12.30;99.90
27413;DHT22;14871;52.702;5.230;2022-11-15T07:51:54;12.50;99.90
27413;DHT22;14871;52.702;5.230;2022-11-15T07:54:20;12.50;99.90
27413;DHT22;14871;52.702;5.230;2022-11-15T07:56:45;12.40;99.90
27413;DHT22;14871;52.702;5.230;2022-11-15T07:59:11;12.30;99.90
27413;DHT22;14871;52.702;5.230;2022-11-15T08:01:36;12.40;99.90
27413;DHT22;14871;52.702;5.230;2022-11-15T08:04:01;12.30;99.90
27413;DHT22;14871;52.702;5.230;2022-11-15T08:06:27;12.30;99.90
27413;DHT22;14871;52.702;5.230;2022-11-15T08:08:52;12.40;99.90
27413;DHT22;14871;52.702;5.230;2022-11-15T08:11:18;12.30;99.90
27413;DHT22;14871;52.702;5.230;2022-11-15T08:13:44;12.50;99.90
27413;DHT22;14871;52.702;5.230;2022-11-15T08:16:09;12.50;99.90
27413;DHT22;14871;52.702;5.230;2022-11-15T08:18:37;12.40;99.90
27413;DHT22;14871;52.702;5.230;2022-11-15T08:21:02;12.40;99.90
27413;DHT22;14871;52.702;5.230;2022-11-15T08:23:28;12.50;99.90
27413;DHT22;14871;52.702;5.230;2022-11-15T08:25:59;12.40;99.90
27413;DHT22;14871;52.702;5.230;2022-11-15T08:28:24;12.40;99.90
27413;DHT22;14871;52.702;5.230;2022-11-15T08:30:50;12.30;99.90
27413;DHT22;14871;52.702;5.230;2022-11-15T08:33:15;12.50;99.90
27413;DHT22;14871;52.702;5.230;2022-11-15T08:35:41;12.50;99.90
27413;DHT22;14871;52.702;5.230;2022-11-15T08:38:07;12.50;99.90
27413;DHT22;14871;52.702;5.230;2022-11-15T08:40:33;12.50;99.90
27413;DHT22;14871;52.702;5.230;2022-11-15T08:42:58;12.50;99.90
27413;DHT22;14871;52.702;5.230;2022-11-15T08:45:28;12.90;99.90
27413;DHT22;14871;52.702;5.230;2022-11-15T08:47:54;13.10;99.90
27413;DHT22;14871;52.702;5.230;2022-11-15T08:50:19;13.40;99.90
27413;DHT22;14871;52.702;5.230;2022-11-15T08:52:45;13.80;99.90
27413;DHT22;14871;52.702;5.230;2022-11-15T08:55:10;14.20;99.90
27413;DHT22;14871;52.702;5.230;2022-11-15T08:57:36;14.60;99.90
27413;DHT22;14871;52.702;5.230;2022-11-15T09:00:02;15.10;99.90
27413;DHT22;14871;52.702;5.230;2022-11-15T09:02:27;15.20;99.90
27413;DHT22;14871;52.702;5.230;2022-11-15T09:04:53;15.40;99.90
27413;DHT22;14871;52.702;5.230;2022-11-15T09:07:18;15.60;99.90
27413;DHT22;14871;52.702;5.230;2022-11-15T09:09:44;15.50;99.90
27413;DHT22;14871;52.702;5.230;2022-11-15T09:12:09;15.20;99.90
27413;DHT22;14871;52.702;5.230;2022-11-15T09:14:35;14.90;99.90
27413;DHT22;14871;52.702;5.230;2022-11-15T09:17:00;14.70;99.90
27413;DHT22;14871;52.702;5.230;2022-11-15T09:19:26;14.30;99.90
27413;DHT22;14871;52.702;5.230;2022-11-15T09:21:52;14.10;99.90
27413;DHT22;14871;52.702;5.230;2022-11-15T09:24:17;13.90;99.90
27413;DHT22;14871;52.702;5.230;2022-11-15T09:26:43;13.80;99.90
27413;DHT22;14871;52.702;5.230;2022-11-15T09:29:09;13.80;99.90
27413;DHT22;14871;52.702;5.230;2022-11-15T09:31:34;13.70;99.90
27413;DHT22;14871;52.702;5.230;2022-11-15T09:34:00;13.80;99.90
27413;DHT22;14871;52.702;5.230;2022-11-15T09:36:25;14.00;99.90
27413;DHT22;14871;52.702;5.230;2022-11-15T09:38:51;14.20;99.90
27413;DHT22;14871;52.702;5.230;2022-11-15T09:41:21;14.40;99.90
27413;DHT22;14871;52.702;5.230;2022-11-15T09:48:55;14.40;99.90
27413;DHT22;14871;52.702;5.230;2022-11-15T09:51:24;14.30;99.90
27413;DHT22;14871;52.702;5.230;2022-11-15T09:53:53;14.10;99.90
27413;DHT22;14871;52.702;5.230;2022-11-15T09:56:31;14.10;99.90
27413;DHT22;14871;52.702;5.230;2022-11-15T10:04:16;13.80;99.90
27413;DHT22;14871;52.702;5.230;2022-11-15T10:06:43;13.90;99.90
27413;DHT22;14871;52.702;5.230;2022-11-15T10:09:17;13.90;99.90
27413;DHT22;14871;52.702;5.230;2022-11-15T10:11:44;14.10;99.90
27413;DHT22;14871;52.702;5.230;2022-11-15T10:14:11;14.60;99.90
27413;DHT22;14871;52.702;5.230;2022-11-15T10:21:50;15.00;99.90
27413;DHT22;14871;52.702;5.230;2022-11-15T10:24:19;15.30;99.90
27413;DHT22;14871;52.702;5.230;2022-11-15T10:26:48;15.90;99.90
27413;DHT22;14871;52.702;5.230;2022-11-15T10:29:20;16.50;99.90
27413;DHT22;14871;52.702;5.230;2022-11-15T10:31:46;17.00;99.90
27413;DHT22;14871;52.702;5.230;2022-11-15T10:34:16;17.00;99.90
27413;DHT22;14871;52.702;5.230;2022-11-15T10:36:45;17.50;99.90
27413;DHT22;14871;52.702;5.230;2022-11-15T10:54:38;18.80;99.90
27413;DHT22;14871;52.702;5.230;2022-11-15T10:57:06;18.90;99.90
27413;DHT22;14871;52.702;5.230;2022-11-15T11:04:52;19.10;99.90
27413;DHT22;14871;52.702;5.230;2022-11-15T11:07:22;19.20;99.90
27413;DHT22;14871;52.702;5.230;2022-11-15T11:09:48;19.40;99.90
27413;DHT22;14871;52.702;5.230;2022-11-15T11:12:26;19.40;99.90
27413;DHT22;14871;52.702;5.230;2022-11-15T11:14:52;20.10;99.00
27413;DHT22;14871;52.702;5.230;2022-11-15T11:17:30;20.10;97.50
27413;DHT22;14871;52.702;5.230;2022-11-15T11:22:30;20.50;97.10
27413;DHT22;14871;52.702;5.230;2022-11-15T11:33:03;21.10;93.90
27413;DHT22;14871;52.702;5.230;2022-11-15T11:35:34;21.20;94.20
27413;DHT22;14871;52.702;5.230;2022-11-15T11:38:05;21.00;93.70
27413;DHT22;14871;52.702;5.230;2022-11-15T11:40:40;21.10;93.40
27413;DHT22;14871;52.702;5.230;2022-11-15T11:48:12;20.80;94.60
27413;DHT22;14871;52.702;5.230;2022-11-15T11:50:38;20.90;93.30
27413;DHT22;14871;52.702;5.230;2022-11-15T11:55:53;20.50;94.00
27413;DHT22;14871;52.702;5.230;2022-11-15T11:58:21;20.40;93.40
27413;DHT22;14871;52.702;5.230;2022-11-15T12:01:11;20.20;93.80
27413;DHT22;14871;52.702;5.230;2022-11-15T12:06:00;19.90;94.20
27413;DHT22;14871;52.702;5.230;2022-11-15T12:11:29;20.00;93.80
27413;DHT22;14871;52.702;5.230;2022-11-15T12:14:01;19.70;93.80
27413;DHT22;14871;52.702;5.230;2022-11-15T12:16:29;19.60;94.20
27413;DHT22;14871;52.702;5.230;2022-11-15T12:19:03;19.90;94.00
27413;DHT22;14871;52.702;5.230;2022-11-15T12:21:44;19.40;94.30
27413;DHT22;14871;52.702;5.230;2022-11-15T12:24:14;19.50;94.30
27413;DHT22;14871;52.702;5.230;2022-11-15T12:27:01;19.20;94.60
27413;DHT22;14871;52.702;5.230;2022-11-15T12:29:34;19.40;94.10
27413;DHT22;14871;52.702;5.230;2022-11-15T12:32:00;19.30;94.30
27413;DHT22;14871;52.702;5.230;2022-11-15T12:34:30;18.80;95.40
27413;DHT22;14871;52.702;5.230;2022-11-15T12:36:59;19.00;95.20
27413;DHT22;14871;52.702;5.230;2022-11-15T12:47:21;18.70;95.40
27413;DHT22;14871;52.702;5.230;2022-11-15T12:49:47;18.60;95.30
27413;DHT22;14871;52.702;5.230;2022-11-15T12:52:13;18.60;95.90
27413;DHT22;14871;52.702;5.230;2022-11-15T12:59:53;18.80;95.70
27413;DHT22;14871;52.702;5.230;2022-11-15T13:02:24;18.90;95.70
27413;DHT22;14871;52.702;5.230;2022-11-15T13:04:51;19.00;95.10
27413;DHT22;14871;52.702;5.230;2022-11-15T13:09:58;19.20;94.80
27413;DHT22;14871;52.702;5.230;2022-11-15T13:15:01;19.00;94.70
27413;DHT22;14871;52.702;5.230;2022-11-15T13:17:44;18.40;95.10
27413;DHT22;14871;52.702;5.230;2022-11-15T13:22:59;17.70;96.50
27413;DHT22;14871;52.702;5.230;2022-11-15T13:27:55;17.70;96.90
27413;DHT22;14871;52.702;5.230;2022-11-15T13:30:27;17.80;96.40
27413;DHT22;14871;52.702;5.230;2022-11-15T13:32:52;17.90;96.30
27413;DHT22;14871;52.702;5.230;2022-11-15T13:35:22;17.70;96.40
27413;DHT22;14871;52.702;5.230;2022-11-15T13:37:48;17.60;96.50
27413;DHT22;14871;52.702;5.230;2022-11-15T13:40:21;17.40;97.50
27413;DHT22;14871;52.702;5.230;2022-11-15T13:42:47;17.30;97.50
27413;DHT22;14871;52.702;5.230;2022-11-15T13:45:13;17.20;97.60
27413;DHT22;14871;52.702;5.230;2022-11-15T13:47:39;17.30;97.30
27413;DHT22;14871;52.702;5.230;2022-11-15T13:50:05;17.20;98.20
27413;DHT22;14871;52.702;5.230;2022-11-15T13:52:35;16.80;98.30
27413;DHT22;14871;52.702;5.230;2022-11-15T13:55:11;16.80;98.40
27413;DHT22;14871;52.702;5.230;2022-11-15T14:00:04;16.60;98.80
27413;DHT22;14871;52.702;5.230;2022-11-15T14:02:32;16.70;98.40
27413;DHT22;14871;52.702;5.230;2022-11-15T14:07:27;16.60;99.00
27413;DHT22;14871;52.702;5.230;2022-11-15T14:09:54;16.50;98.90
27413;DHT22;14871;52.702;5.230;2022-11-15T14:12:24;16.40;99.10
27413;DHT22;14871;52.702;5.230;2022-11-15T14:14:50;16.70;98.60
27413;DHT22;14871;52.702;5.230;2022-11-15T14:17:33;16.50;98.60
27413;DHT22;14871;52.702;5.230;2022-11-15T14:19:59;16.20;98.90
27413;DHT22;14871;52.702;5.230;2022-11-15T14:22:26;15.90;99.70
27413;DHT22;14871;52.702;5.230;2022-11-15T14:27:37;15.70;99.90
27413;DHT22;14871;52.702;5.230;2022-11-15T14:30:02;15.60;99.90
27413;DHT22;14871;52.702;5.230;2022-11-15T14:32:29;15.70;99.90
27413;DHT22;14871;52.702;5.230;2022-11-15T14:34:58;15.30;99.90
27413;DHT22;14871;52.702;5.230;2022-11-15T14:37:25;15.10;99.90
27413;DHT22;14871;52.702;5.230;2022-11-15T14:39:51;15.10;99.90
27413;DHT22;14871;52.702;5.230;2022-11-15T14:42:17;14.90;99.90
27413;DHT22;14871;52.702;5.230;2022-11-15T14:44:43;14.90;99.90
27413;DHT22;14871;52.702;5.230;2022-11-15T14:47:08;15.00;99.90
27413;DHT22;14871;52.702;5.230;2022-11-15T14:49:34;15.00;99.90
27413;DHT22;14871;52.702;5.230;2022-11-15T14:51:59;15.00;99.90
27413;DHT22;14871;52.702;5.230;2022-11-15T14:54:25;14.80;99.90
27413;DHT22;14871;52.702;5.230;2022-11-15T14:59:26;14.70;99.90
27413;DHT22;14871;52.702;5.230;2022-11-15T15:01:51;14.40;99.90
27413;DHT22;14871;52.702;5.230;2022-11-15T15:04:17;14.50;99.90
27413;DHT22;14871;52.702;5.230;2022-11-15T15:09:12;14.60;99.90
27413;DHT22;14871;52.702;5.230;2022-11-15T15:11:38;14.60;99.90
27413;DHT22;14871;52.702;5.230;2022-11-15T15:14:03;14.50;99.90
27413;DHT22;14871;52.702;5.230;2022-11-15T15:16:28;14.60;99.90
27413;DHT22;14871;52.702;5.230;2022-11-15T15:18:54;14.60;99.90
27413;DHT22;14871;52.702;5.230;2022-11-15T15:23:55;14.30;99.90
27413;DHT22;14871;52.702;5.230;2022-11-15T15:26:21;14.50;99.90
27413;DHT22;14871;52.702;5.230;2022-11-15T15:28:47;14.30;99.90
27413;DHT22;14871;52.702;5.230;2022-11-15T15:31:14;14.30;99.90
27413;DHT22;14871;52.702;5.230;2022-11-15T15:33:39;14.40;99.90
27413;DHT22;14871;52.702;5.230;2022-11-15T15:36:05;14.40;99.90
27413;DHT22;14871;52.702;5.230;2022-11-15T15:38:30;14.40;99.90
27413;DHT22;14871;52.702;5.230;2022-11-15T15:40:56;14.50;99.90
27413;DHT22;14871;52.702;5.230;2022-11-15T15:43:21;14.60;99.90
27413;DHT22;14871;52.702;5.230;2022-11-15T15:45:47;14.60;99.90
27413;DHT22;14871;52.702;5.230;2022-11-15T15:48:13;14.40;99.90
27413;DHT22;14871;52.702;5.230;2022-11-15T15:50:39;14.40;99.90
27413;DHT22;14871;52.702;5.230;2022-11-15T15:53:05;14.40;99.90
27413;DHT22;14871;52.702;5.230;2022-11-15T15:55:30;14.30;99.90
27413;DHT22;14871;52.702;5.230;2022-11-15T15:57:56;14.30;99.90
27413;DHT22;14871;52.702;5.230;2022-11-15T16:00:22;14.30;99.90
27413;DHT22;14871;52.702;5.230;2022-11-15T16:02:48;14.30;99.90
27413;DHT22;14871;52.702;5.230;2022-11-15T16:05:14;14.20;99.90
27413;DHT22;14871;52.702;5.230;2022-11-15T16:07:39;14.40;99.90
27413;DHT22;14871;52.702;5.230;2022-11-15T16:10:48;14.10;99.90
27413;DHT22;14871;52.702;5.230;2022-11-15T16:12:54;14.00;99.90
27413;DHT22;14871;52.702;5.230;2022-11-15T16:15:21;14.20;99.90
27413;DHT22;14871;52.702;5.230;2022-11-15T16:17:48;14.10;99.90
27413;DHT22;14871;52.702;5.230;2022-11-15T16:20:31;13.90;99.90
27413;DHT22;14871;52.702;5.230;2022-11-15T16:22:57;13.90;99.90
27413;DHT22;14871;52.702;5.230;2022-11-15T16:25:23;14.00;99.90
27413;DHT22;14871;52.702;5.230;2022-11-15T16:27:48;14.00;99.90
27413;DHT22;14871;52.702;5.230;2022-11-15T16:30:14;14.00;99.90
27413;DHT22;14871;52.702;5.230;2022-11-15T16:38:18;13.90;99.90
27413;DHT22;14871;52.702;5.230;2022-11-15T16:40:44;13.90;99.90
27413;DHT22;14871;52.702;5.230;2022-11-15T16:43:09;13.90;99.90
27413;DHT22;14871;52.702;5.230;2022-11-15T16:45:35;13.70;99.90
27413;DHT22;14871;52.702;5.230;2022-11-15T16:48:00;13.80;99.90
27413;DHT22;14871;52.702;5.230;2022-11-15T16:50:27;13.80;99.90
27413;DHT22;14871;52.702;5.230;2022-11-15T16:52:54;14.00;99.90
27413;DHT22;14871;52.702;5.230;2022-11-15T16:55:20;13.90;99.90
27413;DHT22;14871;52.702;5.230;2022-11-15T16:57:46;13.90;99.90
27413;DHT22;14871;52.702;5.230;2022-11-15T17:00:12;13.80;99.90
27413;DHT22;14871;52.702;5.230;2022-11-15T17:02:44;13.90;99.90
27413;DHT22;14871;52.702;5.230;2022-11-15T17:05:10;14.00;99.90
27413;DHT22;14871;52.702;5.230;2022-11-15T17:07:35;13.90;99.90
27413;DHT22;14871;52.702;5.230;2022-11-15T17:10:01;13.90;99.90
27413;DHT22;14871;52.702;5.230;2022-11-15T17:12:26;14.00;99.90
27413;DHT22;14871;52.702;5.230;2022-11-15T17:14:52;14.00;99.90
27413;DHT22;14871;52.702;5.230;2022-11-15T17:17:18;14.00;99.90
27413;DHT22;14871;52.702;5.230;2022-11-15T17:19:43;13.90;99.90
27413;DHT22;14871;52.702;5.230;2022-11-15T17:22:09;13.80;99.90
27413;DHT22;14871;52.702;5.230;2022-11-15T17:24:34;13.70;99.90
27413;DHT22;14871;52.702;5.230;2022-11-15T17:27:00;13.70;99.90
27413;DHT22;14871;52.702;5.230;2022-11-15T17:29:25;13.80;99.90
27413;DHT22;14871;52.702;5.230;2022-11-15T17:39:37;13.80;99.90
27413;DHT22;14871;52.702;5.230;2022-11-15T17:42:03;13.70;99.90
27413;DHT22;14871;52.702;5.230;2022-11-15T17:44:28;13.80;99.90
27413;DHT22;14871;52.702;5.230;2022-11-15T17:46:54;13.60;99.90